Time;durP1;ratioP1;P1;durP2;ratioP2;P2;SDS_P1;SDS_P2;PMS_P1;PMS_P2;Temp;Humidity;BMP_temperature;BMP_pressure;BME280_temperature;BME280_humidity;BME280_pressure;Samples;Min_cycle;Max_cycle;Signal;HPM_P1;HPM_P2
2023/07/08 00:01:20;;;;;;;;;;;;;;;27.33;36.17;98687.72;5094423;28;19912;-46
2023/07/08 00:03:46;;;;;;;;;;;;;;;27.33;35.81;98671.53;5094435;28;19912;-46
2023/07/08 00:06:19;;;;;;;;;;;;;;;27.34;36.13;98683.91;5094386;28;19916;-46
2023/07/08 00:08:45;;;;;;;;;;;;;;;27.34;36.15;98678.50;5094394;28;20006;-46
2023/07/08 00:11:12;;;;;;;;;;;;;;;27.33;35.88;98653.47;5092979;28;19970;-46
2023/07/08 00:13:37;;;;;;;;;;;;;;;27.34;36.33;98654.25;5093221;28;20397;-46
2023/07/08 00:16:03;;;;;;;;;;;;;;;27.36;36.55;98658.22;5094234;28;19916;-46
2023/07/08 00:18:28;;;;;;;;;;;;;;;27.37;36.19;98664.41;5094145;28;19955;-46
2023/07/08 00:20:53;;;;;;;;;;;;;;;27.38;36.55;98668.69;5094173;28;20005;-46
2023/07/08 00:23:22;;;;;;;;;;;;;;;27.36;36.57;98663.59;5092973;28;19961;-46
2023/07/08 00:25:47;;;;;;;;;;;;;;;27.36;36.89;98657.44;5094048;28;19986;-46
2023/07/08 00:28:17;;;;;;;;;;;;;;;27.25;36.81;98665.00;5092664;28;19966;-46
2023/07/08 00:30:42;;;;;;;;;;;;;;;27.16;37.16;98678.41;5093963;28;19912;-46
2023/07/08 00:33:08;;;;;;;;;;;;;;;27.08;37.83;98677.28;5092311;28;19916;-46
2023/07/08 00:35:38;;;;;;;;;;;;;;;27.02;37.59;98683.09;5094000;28;19916;-45
2023/07/08 00:38:26;;;;;;;;;;;;;;;26.98;38.19;98674.81;5093713;28;20385;-46
2023/07/08 00:40:57;;;;;;;;;;;;;;;26.89;38.39;98680.16;5093707;28;19912;-46
2023/07/08 00:43:34;;;;;;;;;;;;;;;26.86;38.46;98679.97;5092345;28;19947;-46
2023/07/08 00:46:25;;;;;;;;;;;;;;;26.83;38.54;98667.94;5092384;28;19911;-46
2023/07/08 00:48:52;;;;;;;;;;;;;;;26.89;38.21;98649.75;5093853;28;20381;-46
2023/07/08 00:51:19;;;;;;;;;;;;;;;26.98;38.27;98644.41;5093488;28;19912;-46
2023/07/08 00:53:44;;;;;;;;;;;;;;;26.89;38.57;98636.28;5093489;28;19912;-46
2023/07/08 00:56:14;;;;;;;;;;;;;;;26.75;39.03;98636.38;5092152;28;19912;-46
2023/07/08 00:58:44;;;;;;;;;;;;;;;26.68;39.29;98628.75;5093435;28;20018;-46
2023/07/08 01:01:11;;;;;;;;;;;;;;;26.60;39.54;98639.44;5092077;28;19912;-46
2023/07/08 01:03:42;;;;;;;;;;;;;;;26.56;39.58;98636.56;5093221;28;19924;-46
2023/07/08 01:06:08;;;;;;;;;;;;;;;26.57;39.96;98640.03;5093608;28;20281;-46
2023/07/08 01:08:33;;;;;;;;;;;;;;;26.55;39.97;98631.47;5093186;28;19916;-46
2023/07/08 01:11:01;;;;;;;;;;;;;;;26.54;40.06;98630.69;5093112;28;19912;-46
2023/07/08 01:13:27;;;;;;;;;;;;;;;26.58;39.98;98617.41;5093090;28;19912;-46
2023/07/08 01:15:53;;;;;;;;;;;;;;;26.60;39.61;98615.22;5093026;28;19923;-46
2023/07/08 01:18:24;;;;;;;;;;;;;;;26.61;39.54;98606.84;5093004;28;20385;-46
2023/07/08 01:20:49;;;;;;;;;;;;;;;26.60;39.69;98615.22;5091898;28;19919;-46
2023/07/08 01:23:15;;;;;;;;;;;;;;;26.58;39.86;98606.66;5092696;28;19916;-46
2023/07/08 01:25:42;;;;;;;;;;;;;;;26.58;40.02;98612.84;5074733;28;19918;-46
2023/07/08 01:28:07;;;;;;;;;;;;;;;26.65;39.82;98609.72;5092830;28;19912;-46
2023/07/08 01:30:32;;;;;;;;;;;;;;;26.67;39.76;98616.38;5091547;28;20348;-46
2023/07/08 01:33:01;;;;;;;;;;;;;;;26.68;39.68;98623.34;5092596;28;19920;-46
2023/07/08 01:35:27;;;;;;;;;;;;;;;26.67;39.32;98639.81;5091501;28;19916;-46
2023/07/08 01:37:56;;;;;;;;;;;;;;;26.67;39.28;98645.97;5092703;28;20048;-46
2023/07/08 01:40:27;;;;;;;;;;;;;;;26.71;39.60;98646.16;5091350;28;20002;-46
2023/07/08 01:42:52;;;;;;;;;;;;;;;26.76;39.27;98643.34;5092617;28;19916;-46
2023/07/08 01:45:20;;;;;;;;;;;;;;;26.83;39.19;98651.00;5091359;28;19912;-46
2023/07/08 01:47:54;;;;;;;;;;;;;;;27.01;39.04;98660.75;5092642;28;19912;-47
2023/07/08 01:50:21;;;;;;;;;;;;;;;27.21;39.05;98653.22;5091206;28;19912;-46
2023/07/08 01:52:47;;;;;;;;;;;;;;;27.32;38.68;98659.94;5092589;28;20006;-46
2023/07/08 01:55:12;;;;;;;;;;;;;;;27.33;38.50;98656.16;5091200;28;20010;-46
2023/07/08 01:57:38;;;;;;;;;;;;;;;27.34;38.73;98649.66;5091191;28;19958;-46
2023/07/08 02:00:03;;;;;;;;;;;;;;;27.37;38.49;98634.78;5092482;28;20444;-46
2023/07/08 02:02:29;;;;;;;;;;;;;;;27.58;38.58;98614.19;5092366;28;19920;-46
2023/07/08 02:04:55;;;;;;;;;;;;;;;27.93;40.29;98616.16;5091005;28;19919;-46
2023/07/08 02:07:20;;;;;;;;;;;;;;;27.67;41.10;98617.72;5091037;28;19947;-46
2023/07/08 02:09:45;;;;;;;;;;;;;;;27.37;42.67;98624.78;5091011;28;20005;-46
2023/07/08 02:12:12;;;;;;;;;;;;;;;27.59;42.95;98623.09;5092268;28;19923;-46
2023/07/08 02:14:37;;;;;;;;;;;;;;;27.67;42.19;98625.00;5091020;28;19919;-46
2023/07/08 02:17:05;;;;;;;;;;;;;;;27.61;42.01;98628.97;5092261;28;19916;-46
2023/07/08 02:19:31;;;;;;;;;;;;;;;27.93;41.23;98629.66;5092267;28;19962;-46
2023/07/08 02:21:57;;;;;;;;;;;;;;;28.04;40.44;98626.31;5092220;28;19916;-46
2023/07/08 02:24:23;;;;;;;;;;;;;;;27.78;40.47;98630.88;5092055;28;19912;-47
2023/07/08 02:26:48;;;;;;;;;;;;;;;27.66;40.81;98631.50;5092110;28;19962;-46
2023/07/08 02:29:14;;;;;;;;;;;;;;;27.38;40.79;98634.44;5092164;28;19912;-47
2023/07/08 02:31:39;;;;;;;;;;;;;;;27.08;40.69;98630.66;5090772;28;19912;-46
2023/07/08 02:34:05;;;;;;;;;;;;;;;26.73;41.17;98627.03;5091894;28;19920;-46
2023/07/08 02:36:30;;;;;;;;;;;;;;;26.65;41.50;98621.25;5094335;28;19916;-46
2023/07/08 02:38:56;;;;;;;;;;;;;;;26.80;41.43;98625.47;5094809;28;19912;-46
2023/07/08 02:41:21;;;;;;;;;;;;;;;27.03;41.40;98628.13;5094743;28;19912;-46
2023/07/08 02:43:47;;;;;;;;;;;;;;;27.25;40.77;98646.16;5095947;28;20355;-46
2023/07/08 02:46:12;;;;;;;;;;;;;;;27.32;40.87;98649.16;5094885;28;19912;-46
2023/07/08 02:48:37;;;;;;;;;;;;;;;27.42;40.81;98648.09;5095956;28;19912;-46
2023/07/08 02:51:04;;;;;;;;;;;;;;;27.50;40.27;98648.09;5095808;28;19923;-46
2023/07/08 02:53:30;;;;;;;;;;;;;;;27.49;40.31;98651.13;5094520;28;19916;-46
2023/07/08 02:55:55;;;;;;;;;;;;;;;27.41;40.50;98651.91;5094462;28;19912;-46
2023/07/08 02:58:21;;;;;;;;;;;;;;;27.09;40.62;98651.13;5094391;28;20397;-46
2023/07/08 03:00:51;;;;;;;;;;;;;;;26.70;41.37;98641.88;5094373;28;19912;-46
2023/07/08 03:03:16;;;;;;;;;;;;;;;26.37;41.85;98652.09;5094549;28;19924;-46
2023/07/08 03:05:42;;;;;;;;;;;;;;;26.03;42.66;98651.50;5094264;28;19912;-46
2023/07/08 03:08:07;;;;;;;;;;;;;;;25.81;42.91;98646.03;5095540;28;19912;-46
2023/07/08 03:10:33;;;;;;;;;;;;;;;25.71;43.50;98647.03;5094230;28;19923;-46
2023/07/08 03:12:58;;;;;;;;;;;;;;;25.87;43.48;98652.91;5094114;28;20297;-46
2023/07/08 03:15:23;;;;;;;;;;;;;;;25.75;43.46;98663.38;5095399;28;20404;-46
2023/07/08 03:17:49;;;;;;;;;;;;;;;25.62;43.55;98659.63;5094211;28;19912;-46
2023/07/08 03:20:14;;;;;;;;;;;;;;;25.54;43.69;98663.81;5095283;28;19919;-46
2023/07/08 03:22:40;;;;;;;;;;;;;;;25.47;44.29;98666.91;5093943;28;19912;-46
2023/07/08 03:25:05;;;;;;;;;;;;;;;25.39;44.63;98662.19;5095188;28;20470;-46
2023/07/08 03:27:31;;;;;;;;;;;;;;;25.27;44.48;98660.03;5093859;28;20373;-46
2023/07/08 03:29:56;;;;;;;;;;;;;;;25.28;44.16;98655.44;5093913;28;20385;-46
2023/07/08 03:32:22;;;;;;;;;;;;;;;25.35;44.43;98655.81;5094796;28;20394;-46
2023/07/08 03:34:47;;;;;;;;;;;;;;;25.44;44.59;98667.47;5093848;28;19912;-46
2023/07/08 03:37:13;;;;;;;;;;;;;;;25.62;44.77;98665.78;5093701;28;19920;-46
2023/07/08 03:39:38;;;;;;;;;;;;;;;25.62;44.97;98670.38;5095035;28;20006;-46
2023/07/08 03:42:04;;;;;;;;;;;;;;;25.50;45.19;98668.97;5093610;28;19918;-46
2023/07/08 03:44:30;;;;;;;;;;;;;;;25.43;45.16;98673.16;5094810;28;19918;-46
2023/07/08 03:46:55;;;;;;;;;;;;;;;25.38;45.39;98676.72;5075615;28;19942;-46
2023/07/08 03:49:23;;;;;;;;;;;;;;;25.34;45.23;98681.13;5094497;28;19957;-46
2023/07/08 03:51:49;;;;;;;;;;;;;;;25.33;45.36;98673.34;5094715;28;19923;-46
2023/07/08 03:54:15;;;;;;;;;;;;;;;25.20;45.83;98678.38;5094678;28;20002;-46
2023/07/08 03:56:40;;;;;;;;;;;;;;;25.04;46.17;98677.84;5094647;28;20413;-46
2023/07/08 03:59:06;;;;;;;;;;;;;;;24.97;46.48;98682.00;5094548;28;19916;-46
2023/07/08 04:01:32;;;;;;;;;;;;;;;24.95;46.62;98676.97;5094552;28;19954;-46
2023/07/08 04:03:58;;;;;;;;;;;;;;;24.92;46.63;98675.66;5093132;28;20045;-46
2023/07/08 04:06:24;;;;;;;;;;;;;;;24.82;46.80;98675.81;5094420;28;19923;-46
2023/07/08 04:08:49;;;;;;;;;;;;;;;24.91;46.54;98671.38;5093100;28;19912;-46
2023/07/08 04:11:16;;;;;;;;;;;;;;;25.15;46.24;98675.78;5094364;28;19922;-46
2023/07/08 04:13:42;;;;;;;;;;;;;;;25.51;45.72;98675.13;5094305;28;19922;-46
2023/07/08 04:16:10;;;;;;;;;;;;;;;25.40;45.99;98674.53;5092920;28;19915;-46
2023/07/08 04:18:36;;;;;;;;;;;;;;;25.10;46.74;98681.25;5092908;28;19963;-46
2023/07/08 04:21:02;;;;;;;;;;;;;;;24.90;47.35;98683.19;5092841;28;20385;-46
2023/07/08 04:23:27;;;;;;;;;;;;;;;24.84;47.37;98683.59;5094007;28;19985;-46
2023/07/08 04:25:55;;;;;;;;;;;;;;;24.86;47.94;98689.47;5093991;28;19916;-46
2023/07/08 04:28:20;;;;;;;;;;;;;;;25.20;47.36;98681.06;5092766;28;20302;-46
2023/07/08 04:30:46;;;;;;;;;;;;;;;25.42;46.73;98679.63;5092750;28;19927;-46
2023/07/08 04:33:12;;;;;;;;;;;;;;;25.64;46.48;98679.72;5092331;28;19959;-46
2023/07/08 04:35:38;;;;;;;;;;;;;;;25.83;46.44;98682.28;5092579;28;20003;-46
2023/07/08 04:38:14;;;;;;;;;;;;;;;25.97;45.56;98682.28;5094070;28;20409;-46
2023/07/08 04:40:42;;;;;;;;;;;;;;;25.87;45.60;98687.84;5093792;28;19919;-46
2023/07/08 04:43:07;;;;;;;;;;;;;;;25.69;45.89;98684.19;5093625;28;20006;-46
2023/07/08 04:45:33;;;;;;;;;;;;;;;25.52;46.08;98685.59;5093921;28;20011;-46
2023/07/08 04:47:58;;;;;;;;;;;;;;;25.16;46.94;98690.03;5092316;28;20340;-46
2023/07/08 04:50:24;;;;;;;;;;;;;;;24.90;47.51;98699.31;5092254;28;20373;-46
2023/07/08 04:52:49;;;;;;;;;;;;;;;24.74;48.08;98702.53;5093577;28;19958;-46
2023/07/08 04:55:15;;;;;;;;;;;;;;;24.64;48.45;98709.66;5093468;28;19941;-46
2023/07/08 04:57:40;;;;;;;;;;;;;;;24.51;48.78;98700.47;5092177;28;19911;-46
2023/07/08 05:00:10;;;;;;;;;;;;;;;24.43;49.16;98709.16;5093104;28;20474;-46
2023/07/08 05:02:35;;;;;;;;;;;;;;;24.46;49.53;98703.19;5092097;28;20282;-46
2023/07/08 05:05:02;;;;;;;;;;;;;;;24.62;49.15;98706.47;5093184;28;19982;-46
2023/07/08 05:07:27;;;;;;;;;;;;;;;24.61;49.16;98707.56;5091957;28;19923;-46
2023/07/08 05:09:52;;;;;;;;;;;;;;;24.52;49.27;98704.72;5091832;28;19916;-46
2023/07/08 05:12:18;;;;;;;;;;;;;;;24.58;49.57;98716.19;5091856;28;19912;-46
2023/07/08 05:14:43;;;;;;;;;;;;;;;26.09;47.04;98703.28;5093155;28;19915;-46
2023/07/08 05:17:10;;;;;;;;;;;;;;;27.65;43.48;98700.81;5091727;28;19923;-46
2023/07/08 05:19:35;;;;;;;;;;;;;;;28.93;41.00;98706.94;5091767;28;19912;-46
2023/07/08 05:22:01;;;;;;;;;;;;;;;30.24;38.95;98695.53;5092967;28;19938;-46
2023/07/08 05:24:26;;;;;;;;;;;;;;;31.19;37.28;98691.16;5091571;28;19912;-46
2023/07/08 05:26:52;;;;;;;;;;;;;;;32.06;35.58;98688.44;5091636;28;19912;-46
2023/07/08 05:29:17;;;;;;;;;;;;;;;32.65;33.34;98690.50;5092888;28;19954;-47
2023/07/08 05:31:43;;;;;;;;;;;;;;;33.22;32.77;98699.34;5092830;28;20324;-46
2023/07/08 05:34:08;;;;;;;;;;;;;;;33.97;31.33;98698.41;5092592;28;20469;-47
2023/07/08 05:36:34;;;;;;;;;;;;;;;34.73;29.76;98699.94;5091399;28;19917;-47
2023/07/08 05:38:59;;;;;;;;;;;;;;;34.93;27.83;98708.88;5092739;28;19957;-46
2023/07/08 05:41:24;;;;;;;;;;;;;;;34.45;27.77;98705.63;5091390;28;19912;-47
2023/07/08 05:43:50;;;;;;;;;;;;;;;33.92;28.43;98715.00;5092571;28;19962;-47
2023/07/08 05:46:15;;;;;;;;;;;;;;;33.50;28.79;98714.78;5091294;28;19923;-47
2023/07/08 05:48:41;;;;;;;;;;;;;;;33.27;29.26;98711.94;5091280;28;19912;-46
2023/07/08 05:51:06;;;;;;;;;;;;;;;33.51;29.17;98713.66;5091253;28;19912;-46
2023/07/08 05:53:32;;;;;;;;;;;;;;;33.66;28.92;98712.88;5091283;28;20332;-47
2023/07/08 05:55:57;;;;;;;;;;;;;;;33.79;28.72;98714.34;5091172;28;20303;-46
2023/07/08 05:58:22;;;;;;;;;;;;;;;33.45;29.50;98724.03;5091159;28;20089;-46
2023/07/08 06:00:54;;;;;;;;;;;;;;;33.57;29.08;98723.94;5091041;28;19967;-46
2023/07/08 06:03:19;;;;;;;;;;;;;;;33.86;28.89;98724.59;5091124;28;20301;-46
2023/07/08 06:05:45;;;;;;;;;;;;;;;34.29;28.30;98732.94;5092347;28;19915;-46
2023/07/08 06:08:10;;;;;;;;;;;;;;;34.70;28.00;98728.72;5091040;28;19927;-46
2023/07/08 06:10:41;;;;;;;;;;;;;;;35.07;27.86;98720.03;5090212;28;20013;-46
2023/07/08 06:13:06;;;;;;;;;;;;;;;35.43;27.19;98728.06;5091049;28;19916;-46
2023/07/08 06:15:32;;;;;;;;;;;;;;;35.25;26.90;98734.00;5090949;28;19966;-46
2023/07/08 06:18:00;;;;;;;;;;;;;;;35.02;27.28;98742.16;5092207;28;19916;-46
2023/07/08 06:20:26;;;;;;;;;;;;;;;35.20;27.20;98743.28;5092252;28;19919;-46
2023/07/08 06:22:51;;;;;;;;;;;;;;;35.19;26.89;98738.19;5090768;28;20302;-46
2023/07/08 06:25:17;;;;;;;;;;;;;;;34.64;27.21;98751.94;5092147;28;19912;-46
2023/07/08 06:27:42;;;;;;;;;;;;;;;34.54;27.37;98744.34;5092154;28;20010;-46
2023/07/08 06:30:08;;;;;;;;;;;;;;;34.46;27.74;98753.53;5092096;28;19912;-46
2023/07/08 06:32:33;;;;;;;;;;;;;;;34.54;27.68;98766.16;5090574;28;19931;-46
2023/07/08 06:34:59;;;;;;;;;;;;;;;34.95;27.18;98753.75;5090814;28;19935;-47
2023/07/08 06:37:24;;;;;;;;;;;;;;;35.51;26.50;98757.81;5090737;28;20293;-47
2023/07/08 06:39:49;;;;;;;;;;;;;;;36.14;26.21;98756.44;5092087;28;19912;-46
2023/07/08 06:42:15;;;;;;;;;;;;;;;36.57;25.00;98762.47;5090738;28;19916;-46
2023/07/08 06:44:45;;;;;;;;;;;;;;;36.96;24.50;98759.41;5091877;28;19912;-47
2023/07/08 06:47:10;;;;;;;;;;;;;;;37.08;23.75;98763.03;5092302;28;19912;-47
2023/07/08 06:49:35;;;;;;;;;;;;;;;36.98;24.51;98756.28;5092094;28;19919;-47
2023/07/08 06:52:01;;;;;;;;;;;;;;;37.06;23.94;98768.88;5091929;28;19919;-47
2023/07/08 06:54:27;;;;;;;;;;;;;;;37.60;23.93;98765.88;5091936;28;19916;-47
2023/07/08 06:56:53;;;;;;;;;;;;;;;37.86;22.76;98770.38;5092114;28;19912;-47
2023/07/08 06:59:18;;;;;;;;;;;;;;;37.91;22.56;98762.59;5090607;28;20369;-47
2023/07/08 07:01:44;;;;;;;;;;;;;;;38.40;23.08;98767.94;5090571;28;20337;-46
2023/07/08 07:04:09;;;;;;;;;;;;;;;38.69;21.99;98772.38;5090575;28;19954;-43
2023/07/08 07:06:34;;;;;;;;;;;;;;;38.75;21.65;98768.06;5091805;28;20305;-44
2023/07/08 07:09:00;;;;;;;;;;;;;;;38.79;21.59;98779.06;5090480;28;19995;-44
2023/07/08 07:11:25;;;;;;;;;;;;;;;38.36;21.85;98768.72;5090518;28;19912;-44
2023/07/08 07:13:51;;;;;;;;;;;;;;;38.40;22.28;98782.44;5090392;28;19931;-44
2023/07/08 07:16:16;;;;;;;;;;;;;;;38.51;22.23;98775.06;5091752;28;19974;-44
2023/07/08 07:18:42;;;;;;;;;;;;;;;38.52;21.79;98773.13;5091698;28;19912;-44
2023/07/08 07:21:07;;;;;;;;;;;;;;;38.34;22.13;98773.00;5091696;28;20385;-44
2023/07/08 07:23:33;;;;;;;;;;;;;;;38.25;21.73;98776.09;5095153;28;19919;-44
2023/07/08 07:25:58;;;;;;;;;;;;;;;37.92;22.09;98772.38;5093907;28;19911;-44
2023/07/08 07:28:24;;;;;;;;;;;;;;;38.02;22.44;98781.81;5095237;28;20004;-44
2023/07/08 07:30:55;;;;;;;;;;;;;;;37.94;21.96;98772.75;5093939;28;19919;-44
2023/07/08 07:33:21;;;;;;;;;;;;;;;37.72;22.51;98776.53;5095049;28;20351;-45
2023/07/08 07:35:46;;;;;;;;;;;;;;;37.26;22.62;98774.97;5093674;28;19912;-44
2023/07/08 07:38:14;;;;;;;;;;;;;;;36.82;23.38;98770.19;5093767;28;20395;-44
2023/07/08 07:40:39;;;;;;;;;;;;;;;36.56;23.78;98777.31;5094967;28;19916;-44
2023/07/08 07:43:05;;;;;;;;;;;;;;;36.08;23.94;98778.97;5094865;28;19961;-44
2023/07/08 07:45:30;;;;;;;;;;;;;;;35.53;24.59;98774.63;5093542;28;19919;-44
2023/07/08 07:47:56;;;;;;;;;;;;;;;35.59;24.85;98773.16;5093507;28;19958;-45
2023/07/08 07:50:21;;;;;;;;;;;;;;;35.62;24.65;98788.03;5094724;28;19961;-44
2023/07/08 07:52:47;;;;;;;;;;;;;;;36.21;24.76;98780.38;5094965;28;19912;-44
2023/07/08 07:55:12;;;;;;;;;;;;;;;37.08;24.71;98774.75;5093358;28;19919;-44
2023/07/08 07:57:37;;;;;;;;;;;;;;;38.12;23.00;98774.88;5094624;28;19912;-44
2023/07/08 08:00:03;;;;;;;;;;;;;;;37.85;21.88;98766.84;5094581;28;19927;-44
2023/07/08 08:02:29;;;;;;;;;;;;;;;37.05;23.27;98775.53;5093291;28;19912;-44
2023/07/08 08:04:54;;;;;;;;;;;;;;;36.18;24.33;98779.19;5093140;28;19998;-44
2023/07/08 08:07:20;;;;;;;;;;;;;;;36.63;24.23;98787.56;5094443;28;20373;-44
2023/07/08 08:09:45;;;;;;;;;;;;;;;38.41;22.38;98794.97;5094674;28;20385;-44
2023/07/08 08:12:11;;;;;;;;;;;;;;;39.96;20.48;98787.81;5094410;28;19919;-47
2023/07/08 08:14:37;;;;;;;;;;;;;;;39.78;20.43;98782.31;5092999;28;19916;-47
2023/07/08 08:17:03;;;;;;;;;;;;;;;40.03;20.50;98789.78;5094288;28;19919;-47
2023/07/08 08:19:28;;;;;;;;;;;;;;;40.98;20.00;98794.53;5094199;28;19916;-47
2023/07/08 08:21:54;;;;;;;;;;;;;;;41.39;19.16;98791.13;5092877;28;19935;-47
2023/07/08 08:24:19;;;;;;;;;;;;;;;40.34;18.98;98805.41;5092746;28;20274;-47
2023/07/08 08:26:45;;;;;;;;;;;;;;;39.00;20.89;98792.09;5094030;28;19918;-47
2023/07/08 08:29:11;;;;;;;;;;;;;;;39.22;20.84;98800.34;5092760;28;20420;-47
2023/07/08 08:31:36;;;;;;;;;;;;;;;39.67;20.26;98793.34;5093983;28;20287;-47
2023/07/08 08:34:02;;;;;;;;;;;;;;;39.97;19.99;98789.41;5092982;28;19920;-47
2023/07/08 08:36:27;;;;;;;;;;;;;;;39.64;19.83;98799.59;5092506;28;20336;-47
2023/07/08 08:38:52;;;;;;;;;;;;;;;39.32;20.19;98799.56;5093799;28;19919;-47
2023/07/08 08:41:20;;;;;;;;;;;;;;;39.90;20.23;98795.69;5093811;28;19912;-47
2023/07/08 08:43:47;;;;;;;;;;;;;;;40.81;19.90;98802.50;5093623;28;19915;-47
2023/07/08 08:46:23;;;;;;;;;;;;;;;42.27;18.94;98794.25;5092413;28;19912;-47
2023/07/08 08:49:14;;;;;;;;;;;;;;;42.90;17.27;98804.13;5093692;28;19912;-47
2023/07/08 08:51:40;;;;;;;;;;;;;;;41.96;17.04;98798.91;5077377;28;19912;-46
2023/07/08 08:54:07;;;;;;;;;;;;;;;41.08;17.96;98797.22;5093595;28;19912;-47
2023/07/08 08:56:37;;;;;;;;;;;;;;;40.57;18.70;98803.38;5092151;28;19923;-47
2023/07/08 08:59:02;;;;;;;;;;;;;;;40.69;19.06;98806.47;5093555;28;20373;-48
2023/07/08 09:01:28;;;;;;;;;;;;;;;40.98;19.12;98800.03;5092106;28;19919;-47
2023/07/08 09:04:00;;;;;;;;;;;;;;;41.74;18.39;98805.78;5091989;28;19946;-47
2023/07/08 09:06:34;;;;;;;;;;;;;;;41.99;18.50;98800.06;5093582;28;20301;-47
2023/07/08 09:09:19;;;;;;;;;;;;;;;41.96;17.60;98803.63;5093279;28;20316;-47
2023/07/08 09:11:52;;;;;;;;;;;;;;;41.59;17.94;98805.13;5092759;28;19935;-47
2023/07/08 09:14:25;;;;;;;;;;;;;;;42.06;17.84;98800.78;5093192;28;19916;-47
2023/07/08 09:17:09;;;;;;;;;;;;;;;42.68;17.60;98796.13;5093134;28;19957;-47
2023/07/08 09:19:41;;;;;;;;;;;;;;;42.95;16.99;98814.72;5093110;28;20305;-47
2023/07/08 09:22:32;;;;;;;;;;;;;;;42.67;16.71;98811.13;5093007;28;20016;-47
2023/07/08 09:25:11;;;;;;;;;;;;;;;42.47;17.42;98816.50;5093201;28;19970;-47
2023/07/08 09:27:37;;;;;;;;;;;;;;;41.63;17.20;98812.19;5092996;28;20389;-47
2023/07/08 09:30:02;;;;;;;;;;;;;;;41.33;18.19;98810.03;5091606;28;19919;-47
2023/07/08 09:32:28;;;;;;;;;;;;;;;41.29;18.50;98817.56;5091258;28;19916;-47
2023/07/08 09:34:55;;;;;;;;;;;;;;;41.37;18.04;98821.03;5091489;28;20408;-47
2023/07/08 09:37:39;;;;;;;;;;;;;;;41.10;18.17;98808.59;5092721;28;19922;-47
2023/07/08 09:40:15;;;;;;;;;;;;;;;40.81;18.71;98812.72;5091582;28;19923;-47
2023/07/08 09:42:41;;;;;;;;;;;;;;;41.29;18.66;98806.53;5091414;28;19916;-47
2023/07/08 09:45:15;;;;;;;;;;;;;;;41.46;18.75;98802.09;5092515;28;20400;-47
2023/07/08 09:47:41;;;;;;;;;;;;;;;42.21;17.90;98797.88;5091308;28;20012;-47
2023/07/08 09:50:17;;;;;;;;;;;;;;;42.14;17.35;98806.22;5091277;28;19951;-47
2023/07/08 09:52:43;;;;;;;;;;;;;;;42.36;18.48;98801.22;5092654;28;20301;-47
2023/07/08 09:55:11;;;;;;;;;;;;;;;42.68;17.66;98795.31;5092783;28;19912;-47
2023/07/08 09:57:36;;;;;;;;;;;;;;;42.42;17.78;98794.06;5092498;28;19923;-48
2023/07/08 10:00:06;;;;;;;;;;;;;;;42.44;17.09;98797.22;5091170;28;19912;-47
2023/07/08 10:02:38;;;;;;;;;;;;;;;42.12;17.26;98798.38;5092397;28;20354;-48
2023/07/08 10:05:15;;;;;;;;;;;;;;;41.56;18.31;98809.47;5092362;28;19912;-47
2023/07/08 10:07:41;;;;;;;;;;;;;;;41.32;18.20;98808.50;5092628;28;20278;-48
2023/07/08 10:10:10;;;;;;;;;;;;;;;40.65;18.58;98805.69;5092342;28;19974;-47
2023/07/08 10:12:37;;;;;;;;;;;;;;;41.06;18.34;98791.31;5092584;28;20339;-47
2023/07/08 10:15:11;;;;;;;;;;;;;;;40.73;18.65;98815.50;5092298;28;20350;-48
2023/07/08 10:17:40;;;;;;;;;;;;;;;40.80;18.92;98805.66;5092547;28;20361;-47
2023/07/08 10:20:10;;;;;;;;;;;;;;;41.28;19.01;98808.50;5090897;28;20464;-47
2023/07/08 10:22:54;;;;;;;;;;;;;;;41.95;18.42;98796.53;5092246;28;19911;-48
2023/07/08 10:25:27;;;;;;;;;;;;;;;42.88;18.20;98795.47;5092197;28;19957;-48
2023/07/08 10:27:57;;;;;;;;;;;;;;;42.83;16.88;98793.16;5092258;28;19912;-47
2023/07/08 10:30:38;;;;;;;;;;;;;;;42.67;17.31;98793.78;5090805;28;19912;-48
2023/07/08 10:33:22;;;;;;;;;;;;;;;42.09;17.50;98791.69;5091876;28;19916;-48
2023/07/08 10:35:56;;;;;;;;;;;;;;;41.76;17.53;98792.41;5092117;28;19962;-47
2023/07/08 10:38:34;;;;;;;;;;;;;;;41.47;18.28;98792.63;5090782;28;19912;-47
2023/07/08 10:41:03;;;;;;;;;;;;;;;41.54;18.52;98794.56;5073930;28;19951;-47
2023/07/08 10:43:28;;;;;;;;;;;;;;;41.63;18.61;98792.13;5091976;28;19919;-47
2023/07/08 10:46:03;;;;;;;;;;;;;;;41.77;17.90;98789.22;5092045;28;19923;-47
2023/07/08 10:48:46;;;;;;;;;;;;;;;41.75;18.41;98775.06;5091979;28;19912;-47
2023/07/08 10:51:12;;;;;;;;;;;;;;;42.13;17.99;98786.13;5090607;28;19998;-47
2023/07/08 10:53:49;;;;;;;;;;;;;;;42.11;18.13;98783.00;5091938;28;20004;-47
2023/07/08 10:56:20;;;;;;;;;;;;;;;41.90;17.84;98784.78;5090715;28;19922;-47
2023/07/08 10:58:58;;;;;;;;;;;;;;;42.03;17.95;98774.03;5094482;28;20010;-47
2023/07/08 11:01:23;;;;;;;;;;;;;;;42.30;17.88;98778.84;5094429;28;19915;-48
2023/07/08 11:03:49;;;;;;;;;;;;;;;42.37;17.97;98778.75;5095705;28;20401;-48
2023/07/08 11:06:20;;;;;;;;;;;;;;;42.62;17.64;98767.44;5095686;28;19919;-47
2023/07/08 11:08:49;;;;;;;;;;;;;;;42.41;17.26;98776.72;5095582;28;19916;-48
2023/07/08 11:11:33;;;;;;;;;;;;;;;42.00;17.72;98774.81;5077300;28;19919;-47
2023/07/08 11:14:06;;;;;;;;;;;;;;;41.41;18.18;98767.47;5095552;28;19946;-47
2023/07/08 11:16:40;;;;;;;;;;;;;;;40.95;18.73;98771.34;5095508;28;20381;-47
2023/07/08 11:19:10;;;;;;;;;;;;;;;40.97;18.15;98774.50;5095456;28;20373;-48
2023/07/08 11:21:45;;;;;;;;;;;;;;;40.70;18.55;98775.00;5095354;28;20001;-48
2023/07/08 11:24:14;;;;;;;;;;;;;;;40.52;18.98;98768.81;5095239;28;19920;-48
2023/07/08 11:27:07;;;;;;;;;;;;;;;40.58;18.97;98772.69;5077058;28;20339;-48
2023/07/08 11:29:49;;;;;;;;;;;;;;;41.09;18.52;98765.75;5093079;28;19934;-48
2023/07/08 11:32:20;;;;;;;;;;;;;;;41.45;18.40;98757.22;5094863;28;19919;-47
2023/07/08 11:34:47;;;;;;;;;;;;;;;41.34;18.73;98767.56;5093882;28;19915;-47
2023/07/08 11:37:13;;;;;;;;;;;;;;;41.33;18.79;98763.22;5095362;28;20297;-48
2023/07/08 11:39:45;;;;;;;;;;;;;;;41.22;18.86;98774.34;5095121;28;19912;-47
2023/07/08 11:42:23;;;;;;;;;;;;;;;41.03;18.56;98741.78;5093736;28;19947;-48
2023/07/08 11:44:52;;;;;;;;;;;;;;;40.92;19.02;98761.16;5094939;28;20404;-48
2023/07/08 11:47:36;;;;;;;;;;;;;;;40.88;19.39;98763.13;5094959;28;19950;-47
2023/07/08 11:50:02;;;;;;;;;;;;;;;41.42;19.02;98760.00;5094839;28;19912;-47
2023/07/08 11:52:29;;;;;;;;;;;;;;;41.81;19.03;98761.63;5094810;28;19912;-47
2023/07/08 11:55:05;;;;;;;;;;;;;;;41.84;18.09;98760.84;5094790;28;19962;-48
2023/07/08 11:57:42;;;;;;;;;;;;;;;41.45;18.50;98754.44;5094677;28;19969;-47
2023/07/08 12:00:14;;;;;;;;;;;;;;;41.79;18.47;98758.50;5094948;28;20014;-48
2023/07/08 12:02:50;;;;;;;;;;;;;;;41.65;17.92;98756.66;5093311;28;19911;-47
2023/07/08 12:05:15;;;;;;;;;;;;;;;41.09;18.13;98751.97;5093149;28;20442;-48
2023/07/08 12:07:44;;;;;;;;;;;;;;;40.40;18.32;98758.25;5093945;28;19947;-48
2023/07/08 12:10:39;;;;;;;;;;;;;;;40.09;19.11;98749.72;5092803;28;19922;-48
2023/07/08 12:13:11;;;;;;;;;;;;;;;39.93;18.86;98750.91;5085339;28;19957;-48
2023/07/08 12:15:37;;;;;;;;;;;;;;;40.04;19.16;98752.84;5093077;28;19912;-47
2023/07/08 12:18:15;;;;;;;;;;;;;;;39.91;19.07;98744.25;5094341;28;20468;-47
2023/07/08 12:20:41;;;;;;;;;;;;;;;39.90;19.24;98737.19;5094163;28;19916;-48
2023/07/08 12:23:17;;;;;;;;;;;;;;;40.10;19.64;98732.00;5094402;28;19918;-48
2023/07/08 12:25:43;;;;;;;;;;;;;;;40.24;19.16;98739.44;5094145;28;19955;-48
2023/07/08 12:28:09;;;;;;;;;;;;;;;40.06;19.50;98734.00;5094397;28;20356;-47
2023/07/08 12:30:34;;;;;;;;;;;;;;;40.07;19.90;98721.84;5094045;28;20336;-48
2023/07/08 12:33:00;;;;;;;;;;;;;;;40.13;19.59;98737.50;5093785;28;19916;-47
2023/07/08 12:35:28;;;;;;;;;;;;;;;39.84;19.23;98745.00;5092624;28;19961;-47
2023/07/08 12:37:57;;;;;;;;;;;;;;;39.43;19.48;98734.50;5092905;28;19957;-48
2023/07/08 12:40:23;;;;;;;;;;;;;;;39.18;19.63;98742.72;5093830;28;19912;-47
2023/07/08 12:42:49;;;;;;;;;;;;;;;38.89;19.10;98730.88;5093748;28;19919;-47
2023/07/08 12:45:16;;;;;;;;;;;;;;;38.45;19.96;98743.66;5093620;28;19923;-48
2023/07/08 12:47:42;;;;;;;;;;;;;;;38.28;20.20;98728.72;5092424;28;19912;-48
2023/07/08 12:50:08;;;;;;;;;;;;;;;38.34;20.21;98723.66;5092357;28;20385;-48
2023/07/08 12:52:34;;;;;;;;;;;;;;;38.45;20.82;98721.72;5092264;28;19916;-47